ZBTJZYHB

Guest
Details From ZBTJ - BINHAI
To ZYHB - TAIPING
Flight Number -
Tags decoded
Created
Modified
Stats Distance 602 nm / 1,114 km
Max Altitude 0 ft / 0 m
Waypoints 4
Social Downloads 0
Likes 0
Share VATSIM

Download

Looking for another format? Having issues loading an existing format? Contact us
Advertisement - Login to hide

Notes

Requested: ZBTJ LADIX B339 HUR G212 FYU ZYHB Unmatched points: LADIX B339 G212

Route

ZBTJ HUR FYU ZYHB

ID Type Via Altitude Latitude Longitude Leg Dist Tot Dist Heading (true) Name
O ZBTJ APT - 0 ft / 0 m 39.12435˚ 117.34618˚ - 0 nm - BINHAI
HUR VOR - 0 ft / 0 m 40.33000˚ 116.74833˚ 77 nm 77 nm 339° / 339° HUAIROU VOR-DME
FYU VOR - 0 ft / 0 m 44.91167˚ 124.80500˚ 449 nm 527 nm 50° / 55° FUYU VOR-DME
O ZYHB APT - 0 ft / 0 m 45.62340˚ 126.25033˚ 74 nm 601 nm 55° / 56° TAIPING

Altitude Profile

Advertisement - Login to hide

Weather


0- 5 10 15 20 25 30 35+ Temperature / ° C

Clouds and Precipitation
Forecast for 2017-12-15 18:00 UTC. Updated 19 minutes ago

Ground ~20,000 ft ~40,000 ft Winds

ZBTJ

Details ICAO ZBTJ (TSN)
Name BINHAI
Region China
Timezone Asia/Shanghai (UTC+8.0)
Stats Elevation 10 ft / 3 m (AMSL)
Location 39.124352° 117.346182°
Runways 1
Magnetic Variation 6.948° W

METAR

ZBTJ 151530Z 35008MPS CAVOK M02/M19 Q1035 NOSIG

Decode

TAF

Not found

Departure Runways

ID Width Length Bearing (true) Bearing (mag) Surface Threshold Offset Overrun Length
16 164 ft / 50 m 10,508 ft / 3,203 m 154.55° 161.50° Concrete 0 ft / 0 m 197 ft / 60 m
34 164 ft / 50 m 10,508 ft / 3,203 m 334.56° 341.51° Concrete 0 ft / 0 m 197 ft / 60 m

ZYHB

Details ICAO ZYHB (HRB)
Name TAIPING
Region China
Timezone Asia/Harbin (UTC+8.0)
Stats Elevation 457 ft / 139 m (AMSL)
Location 45.623401° 126.250326°
Runways 1
Magnetic Variation 10.689° W

METAR

ZYHB 151500Z 23002MPS 7000 NSC M22/M25 Q1024 NOSIG

Decode

TAF

Not found

Destination Runways

ID Width Length Bearing (true) Bearing (mag) Surface Threshold Offset Overrun Length
05 148 ft / 45 m 10,495 ft / 3,199 m 39.28° 49.97° Asphalt 0 ft / 0 m 197 ft / 60 m
23 148 ft / 45 m 10,495 ft / 3,199 m 219.30° 229.99° Asphalt 0 ft / 0 m 197 ft / 60 m

Approach Navaids

Runway Type Ident Frequency Range Bearing (true) Bearing (mag) Slope Elevation
05 Localiser ILL 110.30 MHz 18 nm / 33 km 39.26° 49.95° - 456 ft / 139 m (AMSL)
05 Glidescope ILL 110.30 MHz 10 nm / 19 km 39.29° 49.98° 3.00° 456 ft / 139 m (AMSL)
23 Localiser IMJ 109.90 MHz 18 nm / 33 km 219.23° 229.92° - 456 ft / 139 m (AMSL)
23 Glidescope IMJ 109.90 MHz 10 nm / 19 km 219.29° 229.98° 3.00° 456 ft / 139 m (AMSL)